sensor_id;sensor_type;location;lat;lon;timestamp;temperature;humidity
12817;DHT22;6473;51.552;6.716;2022-09-14T00:01:10;18.20;99.90
12817;DHT22;6473;51.552;6.716;2022-09-14T00:03:43;18.20;99.90
12817;DHT22;6473;51.552;6.716;2022-09-14T00:06:14;18.10;99.90
12817;DHT22;6473;51.552;6.716;2022-09-14T00:08:42;18.10;99.90
12817;DHT22;6473;51.552;6.716;2022-09-14T00:11:31;18.10;99.90
12817;DHT22;6473;51.552;6.716;2022-09-14T00:14:03;18.00;99.90
12817;DHT22;6473;51.552;6.716;2022-09-14T00:16:38;18.00;99.90
12817;DHT22;6473;51.552;6.716;2022-09-14T00:19:17;18.10;99.90
12817;DHT22;6473;51.552;6.716;2022-09-14T00:21:50;18.00;99.90
12817;DHT22;6473;51.552;6.716;2022-09-14T00:24:21;18.10;99.90
12817;DHT22;6473;51.552;6.716;2022-09-14T00:26:49;18.10;99.90
12817;DHT22;6473;51.552;6.716;2022-09-14T00:29:17;17.90;99.90
12817;DHT22;6473;51.552;6.716;2022-09-14T00:31:45;17.90;99.90
12817;DHT22;6473;51.552;6.716;2022-09-14T00:34:24;17.90;99.90
12817;DHT22;6473;51.552;6.716;2022-09-14T00:36:52;17.90;99.90
12817;DHT22;6473;51.552;6.716;2022-09-14T00:39:35;17.90;99.90
12817;DHT22;6473;51.552;6.716;2022-09-14T00:42:04;17.90;99.90
12817;DHT22;6473;51.552;6.716;2022-09-14T00:45:00;17.80;99.90
12817;DHT22;6473;51.552;6.716;2022-09-14T00:47:30;17.90;99.90
12817;DHT22;6473;51.552;6.716;2022-09-14T00:50:00;17.80;99.90
12817;DHT22;6473;51.552;6.716;2022-09-14T00:52:44;17.80;99.90
12817;DHT22;6473;51.552;6.716;2022-09-14T00:55:22;17.80;99.90
12817;DHT22;6473;51.552;6.716;2022-09-14T00:57:53;17.80;99.90
12817;DHT22;6473;51.552;6.716;2022-09-14T01:00:28;17.80;99.90
12817;DHT22;6473;51.552;6.716;2022-09-14T01:03:00;17.80;99.90
12817;DHT22;6473;51.552;6.716;2022-09-14T01:05:37;17.80;99.90
12817;DHT22;6473;51.552;6.716;2022-09-14T01:08:27;17.70;99.90
12817;DHT22;6473;51.552;6.716;2022-09-14T01:11:14;17.70;99.90
12817;DHT22;6473;51.552;6.716;2022-09-14T01:13:52;17.70;99.90
12817;DHT22;6473;51.552;6.716;2022-09-14T01:16:48;17.70;99.90
12817;DHT22;6473;51.552;6.716;2022-09-14T01:19:25;17.70;99.90
12817;DHT22;6473;51.552;6.716;2022-09-14T01:22:01;17.60;99.90
12817;DHT22;6473;51.552;6.716;2022-09-14T01:24:38;17.60;99.90
12817;DHT22;6473;51.552;6.716;2022-09-14T01:27:20;17.60;99.90
12817;DHT22;6473;51.552;6.716;2022-09-14T01:30:33;17.60;99.90
12817;DHT22;6473;51.552;6.716;2022-09-14T01:33:05;17.50;99.00
12817;DHT22;6473;51.552;6.716;2022-09-14T01:35:46;17.50;99.10
12817;DHT22;6473;51.552;6.716;2022-09-14T01:38:20;17.60;97.80
12817;DHT22;6473;51.552;6.716;2022-09-14T01:40:52;17.50;95.10
12817;DHT22;6473;51.552;6.716;2022-09-14T01:43:26;17.50;97.50
12817;DHT22;6473;51.552;6.716;2022-09-14T01:45:58;17.60;96.90
12817;DHT22;6473;51.552;6.716;2022-09-14T01:48:38;17.60;96.10
12817;DHT22;6473;51.552;6.716;2022-09-14T01:51:09;17.60;94.10
12817;DHT22;6473;51.552;6.716;2022-09-14T01:53:39;17.60;94.20
12817;DHT22;6473;51.552;6.716;2022-09-14T01:56:13;17.60;90.40
12817;DHT22;6473;51.552;6.716;2022-09-14T01:58:46;17.50;90.70
12817;DHT22;6473;51.552;6.716;2022-09-14T02:01:21;17.40;88.30
12817;DHT22;6473;51.552;6.716;2022-09-14T02:03:53;17.40;90.70
12817;DHT22;6473;51.552;6.716;2022-09-14T02:06:24;17.50;91.00
12817;DHT22;6473;51.552;6.716;2022-09-14T02:08:53;17.50;91.00
12817;DHT22;6473;51.552;6.716;2022-09-14T02:11:20;17.50;90.70
12817;DHT22;6473;51.552;6.716;2022-09-14T02:13:49;17.50;91.30
12817;DHT22;6473;51.552;6.716;2022-09-14T02:16:16;17.50;91.70
12817;DHT22;6473;51.552;6.716;2022-09-14T02:19:09;17.50;93.90
12817;DHT22;6473;51.552;6.716;2022-09-14T02:21:37;17.50;91.10
12817;DHT22;6473;51.552;6.716;2022-09-14T02:24:10;17.40;91.90
12817;DHT22;6473;51.552;6.716;2022-09-14T02:26:37;17.40;90.80
12817;DHT22;6473;51.552;6.716;2022-09-14T02:29:34;17.40;94.20
12817;DHT22;6473;51.552;6.716;2022-09-14T02:32:09;17.40;92.70
12817;DHT22;6473;51.552;6.716;2022-09-14T02:34:46;17.40;93.40
12817;DHT22;6473;51.552;6.716;2022-09-14T02:37:18;17.40;92.70
12817;DHT22;6473;51.552;6.716;2022-09-14T02:39:52;17.40;92.00
12817;DHT22;6473;51.552;6.716;2022-09-14T02:42:35;17.40;93.50
12817;DHT22;6473;51.552;6.716;2022-09-14T02:45:23;17.50;93.20
12817;DHT22;6473;51.552;6.716;2022-09-14T02:47:56;17.30;93.70
12817;DHT22;6473;51.552;6.716;2022-09-14T02:50:32;17.40;93.90
12817;DHT22;6473;51.552;6.716;2022-09-14T02:53:05;17.30;92.70
12817;DHT22;6473;51.552;6.716;2022-09-14T02:55:38;17.30;93.80
12817;DHT22;6473;51.552;6.716;2022-09-14T02:58:07;17.30;94.00
12817;DHT22;6473;51.552;6.716;2022-09-14T03:00:41;17.30;95.90
12817;DHT22;6473;51.552;6.716;2022-09-14T03:03:14;17.30;97.30
12817;DHT22;6473;51.552;6.716;2022-09-14T03:05:43;17.30;98.40
12817;DHT22;6473;51.552;6.716;2022-09-14T03:08:10;17.30;96.50
12817;DHT22;6473;51.552;6.716;2022-09-14T03:10:40;17.30;97.90
12817;DHT22;6473;51.552;6.716;2022-09-14T03:13:07;17.30;98.20
12817;DHT22;6473;51.552;6.716;2022-09-14T03:18:43;17.30;99.90
12817;DHT22;6473;51.552;6.716;2022-09-14T03:21:13;17.30;99.90
12817;DHT22;6473;51.552;6.716;2022-09-14T03:23:45;17.30;99.90
12817;DHT22;6473;51.552;6.716;2022-09-14T03:26:14;17.30;99.90
12817;DHT22;6473;51.552;6.716;2022-09-14T03:28:42;17.20;99.90
12817;DHT22;6473;51.552;6.716;2022-09-14T03:31:11;17.20;99.90
12817;DHT22;6473;51.552;6.716;2022-09-14T03:33:41;17.20;99.90
12817;DHT22;6473;51.552;6.716;2022-09-14T03:36:11;17.10;99.90
12817;DHT22;6473;51.552;6.716;2022-09-14T03:38:42;17.10;99.90
12817;DHT22;6473;51.552;6.716;2022-09-14T03:41:10;17.00;99.90
12817;DHT22;6473;51.552;6.716;2022-09-14T03:43:55;17.00;99.90
12817;DHT22;6473;51.552;6.716;2022-09-14T03:46:23;17.00;99.90
12817;DHT22;6473;51.552;6.716;2022-09-14T03:48:50;16.90;99.90
12817;DHT22;6473;51.552;6.716;2022-09-14T03:51:30;16.90;99.90
12817;DHT22;6473;51.552;6.716;2022-09-14T03:54:13;16.90;99.90
12817;DHT22;6473;51.552;6.716;2022-09-14T03:56:40;16.80;99.90
12817;DHT22;6473;51.552;6.716;2022-09-14T03:59:08;16.90;99.90
12817;DHT22;6473;51.552;6.716;2022-09-14T04:01:37;16.90;99.90
12817;DHT22;6473;51.552;6.716;2022-09-14T04:04:05;16.80;99.90
12817;DHT22;6473;51.552;6.716;2022-09-14T04:06:34;16.80;99.90
12817;DHT22;6473;51.552;6.716;2022-09-14T04:09:01;16.60;99.90
12817;DHT22;6473;51.552;6.716;2022-09-14T04:11:28;16.70;99.90
12817;DHT22;6473;51.552;6.716;2022-09-14T04:14:02;16.70;99.90
12817;DHT22;6473;51.552;6.716;2022-09-14T04:16:33;16.70;99.90
12817;DHT22;6473;51.552;6.716;2022-09-14T04:19:01;16.60;99.90
12817;DHT22;6473;51.552;6.716;2022-09-14T04:21:28;16.60;99.90
12817;DHT22;6473;51.552;6.716;2022-09-14T04:24:03;16.60;99.90
12817;DHT22;6473;51.552;6.716;2022-09-14T04:26:33;16.60;99.90
12817;DHT22;6473;51.552;6.716;2022-09-14T04:29:03;16.50;99.90
12817;DHT22;6473;51.552;6.716;2022-09-14T04:31:31;16.50;99.90
12817;DHT22;6473;51.552;6.716;2022-09-14T04:34:15;16.50;99.90
12817;DHT22;6473;51.552;6.716;2022-09-14T04:36:42;16.60;99.90
12817;DHT22;6473;51.552;6.716;2022-09-14T04:39:14;16.50;99.90
12817;DHT22;6473;51.552;6.716;2022-09-14T04:41:41;16.50;99.90
12817;DHT22;6473;51.552;6.716;2022-09-14T04:46:38;16.40;99.90
12817;DHT22;6473;51.552;6.716;2022-09-14T04:49:06;16.30;99.90
12817;DHT22;6473;51.552;6.716;2022-09-14T04:51:36;16.30;99.90
12817;DHT22;6473;51.552;6.716;2022-09-14T04:54:04;16.30;99.90
12817;DHT22;6473;51.552;6.716;2022-09-14T04:59:11;16.30;99.90
12817;DHT22;6473;51.552;6.716;2022-09-14T05:01:41;16.30;99.90
12817;DHT22;6473;51.552;6.716;2022-09-14T05:04:12;16.20;99.90
12817;DHT22;6473;51.552;6.716;2022-09-14T05:06:42;16.20;99.90
12817;DHT22;6473;51.552;6.716;2022-09-14T05:09:11;16.10;99.90
12817;DHT22;6473;51.552;6.716;2022-09-14T05:11:41;16.00;99.90
12817;DHT22;6473;51.552;6.716;2022-09-14T05:14:10;16.10;99.90
12817;DHT22;6473;51.552;6.716;2022-09-14T05:16:38;16.10;99.90
12817;DHT22;6473;51.552;6.716;2022-09-14T05:19:07;16.10;99.90
12817;DHT22;6473;51.552;6.716;2022-09-14T05:21:36;16.00;99.90
12817;DHT22;6473;51.552;6.716;2022-09-14T05:24:14;15.90;99.90
12817;DHT22;6473;51.552;6.716;2022-09-14T05:26:43;15.90;99.90
12817;DHT22;6473;51.552;6.716;2022-09-14T05:29:12;15.90;99.90
12817;DHT22;6473;51.552;6.716;2022-09-14T05:31:39;15.90;99.90
12817;DHT22;6473;51.552;6.716;2022-09-14T05:34:07;15.80;99.90
12817;DHT22;6473;51.552;6.716;2022-09-14T05:36:35;15.70;99.90
12817;DHT22;6473;51.552;6.716;2022-09-14T05:39:02;15.70;99.90
12817;DHT22;6473;51.552;6.716;2022-09-14T05:41:34;15.70;99.90
12817;DHT22;6473;51.552;6.716;2022-09-14T05:44:03;15.70;99.90
12817;DHT22;6473;51.552;6.716;2022-09-14T05:46:31;15.60;99.90
12817;DHT22;6473;51.552;6.716;2022-09-14T05:48:58;15.60;99.90
12817;DHT22;6473;51.552;6.716;2022-09-14T05:51:26;15.60;99.90
12817;DHT22;6473;51.552;6.716;2022-09-14T05:53:59;15.60;99.90
12817;DHT22;6473;51.552;6.716;2022-09-14T05:56:33;15.50;99.90
12817;DHT22;6473;51.552;6.716;2022-09-14T05:59:01;15.40;99.90
12817;DHT22;6473;51.552;6.716;2022-09-14T06:01:49;15.40;99.90
12817;DHT22;6473;51.552;6.716;2022-09-14T06:06:55;15.10;99.90
12817;DHT22;6473;51.552;6.716;2022-09-14T06:09:25;15.10;99.90
12817;DHT22;6473;51.552;6.716;2022-09-14T06:11:54;15.10;99.90
12817;DHT22;6473;51.552;6.716;2022-09-14T06:14:21;15.10;99.90
12817;DHT22;6473;51.552;6.716;2022-09-14T06:16:49;15.10;99.90
12817;DHT22;6473;51.552;6.716;2022-09-14T06:19:16;15.10;99.90
12817;DHT22;6473;51.552;6.716;2022-09-14T06:21:43;15.00;99.90
12817;DHT22;6473;51.552;6.716;2022-09-14T06:24:10;15.10;99.90
12817;DHT22;6473;51.552;6.716;2022-09-14T06:26:41;15.00;99.90
12817;DHT22;6473;51.552;6.716;2022-09-14T06:29:14;15.10;99.90
12817;DHT22;6473;51.552;6.716;2022-09-14T06:31:41;15.10;99.90
12817;DHT22;6473;51.552;6.716;2022-09-14T06:34:09;15.10;99.90
12817;DHT22;6473;51.552;6.716;2022-09-14T06:36:36;15.10;99.90
12817;DHT22;6473;51.552;6.716;2022-09-14T06:39:03;15.00;99.90
12817;DHT22;6473;51.552;6.716;2022-09-14T06:41:30;15.10;99.90
12817;DHT22;6473;51.552;6.716;2022-09-14T06:43:59;15.10;99.90
12817;DHT22;6473;51.552;6.716;2022-09-14T06:46:32;15.10;99.90
12817;DHT22;6473;51.552;6.716;2022-09-14T06:49:08;15.10;99.90
12817;DHT22;6473;51.552;6.716;2022-09-14T06:51:38;15.20;99.90
12817;DHT22;6473;51.552;6.716;2022-09-14T06:54:06;15.10;99.90
12817;DHT22;6473;51.552;6.716;2022-09-14T06:56:36;14.90;99.90
12817;DHT22;6473;51.552;6.716;2022-09-14T06:59:07;14.80;99.90
12817;DHT22;6473;51.552;6.716;2022-09-14T07:01:38;14.80;99.90
12817;DHT22;6473;51.552;6.716;2022-09-14T07:04:14;14.60;99.90
12817;DHT22;6473;51.552;6.716;2022-09-14T07:06:43;14.60;99.90
12817;DHT22;6473;51.552;6.716;2022-09-14T07:09:11;14.60;99.90
12817;DHT22;6473;51.552;6.716;2022-09-14T07:11:39;14.60;99.90
12817;DHT22;6473;51.552;6.716;2022-09-14T07:14:06;14.50;99.90
12817;DHT22;6473;51.552;6.716;2022-09-14T07:16:35;14.70;99.90
12817;DHT22;6473;51.552;6.716;2022-09-14T07:19:04;14.60;99.90
12817;DHT22;6473;51.552;6.716;2022-09-14T07:21:32;14.50;99.90
12817;DHT22;6473;51.552;6.716;2022-09-14T07:24:02;14.30;99.90
12817;DHT22;6473;51.552;6.716;2022-09-14T07:26:31;14.40;99.90
12817;DHT22;6473;51.552;6.716;2022-09-14T07:28:59;14.40;99.90
12817;DHT22;6473;51.552;6.716;2022-09-14T07:31:28;14.30;99.90
12817;DHT22;6473;51.552;6.716;2022-09-14T07:33:58;14.20;99.90
12817;DHT22;6473;51.552;6.716;2022-09-14T07:36:27;14.20;99.90
12817;DHT22;6473;51.552;6.716;2022-09-14T07:38:54;14.30;99.90
12817;DHT22;6473;51.552;6.716;2022-09-14T07:41:24;14.30;99.90
12817;DHT22;6473;51.552;6.716;2022-09-14T07:43:53;14.30;99.90
12817;DHT22;6473;51.552;6.716;2022-09-14T07:46:28;14.40;99.90
12817;DHT22;6473;51.552;6.716;2022-09-14T07:48:59;14.50;99.90
12817;DHT22;6473;51.552;6.716;2022-09-14T07:51:30;14.50;99.90
12817;DHT22;6473;51.552;6.716;2022-09-14T07:53:58;14.50;99.90
12817;DHT22;6473;51.552;6.716;2022-09-14T07:56:27;14.50;99.90
12817;DHT22;6473;51.552;6.716;2022-09-14T07:59:08;14.60;99.90
12817;DHT22;6473;51.552;6.716;2022-09-14T08:01:47;14.60;99.90
12817;DHT22;6473;51.552;6.716;2022-09-14T08:04:28;14.50;99.90
12817;DHT22;6473;51.552;6.716;2022-09-14T08:07:10;14.50;99.90
12817;DHT22;6473;51.552;6.716;2022-09-14T08:09:37;14.50;99.90
12817;DHT22;6473;51.552;6.716;2022-09-14T08:12:20;14.50;99.90
12817;DHT22;6473;51.552;6.716;2022-09-14T08:14:47;14.50;99.90
12817;DHT22;6473;51.552;6.716;2022-09-14T08:17:15;14.50;99.90
12817;DHT22;6473;51.552;6.716;2022-09-14T08:20:08;14.50;99.90
12817;DHT22;6473;51.552;6.716;2022-09-14T08:22:35;14.50;99.90
12817;DHT22;6473;51.552;6.716;2022-09-14T08:25:02;14.70;99.90
12817;DHT22;6473;51.552;6.716;2022-09-14T08:27:30;14.80;99.90
12817;DHT22;6473;51.552;6.716;2022-09-14T08:29:57;14.80;99.90
12817;DHT22;6473;51.552;6.716;2022-09-14T08:32:25;14.80;99.90
12817;DHT22;6473;51.552;6.716;2022-09-14T08:34:52;14.80;99.90
12817;DHT22;6473;51.552;6.716;2022-09-14T08:37:18;14.90;99.90
12817;DHT22;6473;51.552;6.716;2022-09-14T08:39:46;14.90;99.90
12817;DHT22;6473;51.552;6.716;2022-09-14T08:42:16;14.80;99.90
12817;DHT22;6473;51.552;6.716;2022-09-14T08:44:57;14.80;99.90
12817;DHT22;6473;51.552;6.716;2022-09-14T08:47:27;14.80;99.90
12817;DHT22;6473;51.552;6.716;2022-09-14T08:49:59;14.60;99.90
12817;DHT22;6473;51.552;6.716;2022-09-14T08:52:29;14.50;99.90
12817;DHT22;6473;51.552;6.716;2022-09-14T08:54:58;14.60;99.90
12817;DHT22;6473;51.552;6.716;2022-09-14T08:57:33;14.80;99.90
12817;DHT22;6473;51.552;6.716;2022-09-14T09:00:11;14.90;99.90
12817;DHT22;6473;51.552;6.716;2022-09-14T09:02:58;14.90;99.90
12817;DHT22;6473;51.552;6.716;2022-09-14T09:05:53;14.80;99.90
12817;DHT22;6473;51.552;6.716;2022-09-14T09:08:55;14.90;99.90
12817;DHT22;6473;51.552;6.716;2022-09-14T09:11:30;14.90;99.90
12817;DHT22;6473;51.552;6.716;2022-09-14T09:14:11;14.80;99.90
12817;DHT22;6473;51.552;6.716;2022-09-14T09:16:53;14.80;99.90
12817;DHT22;6473;51.552;6.716;2022-09-14T09:19:26;14.70;99.90
12817;DHT22;6473;51.552;6.716;2022-09-14T09:21:54;14.70;99.90
12817;DHT22;6473;51.552;6.716;2022-09-14T09:24:30;14.80;99.90
12817;DHT22;6473;51.552;6.716;2022-09-14T09:27:09;14.90;99.90
12817;DHT22;6473;51.552;6.716;2022-09-14T09:29:37;14.90;99.90
12817;DHT22;6473;51.552;6.716;2022-09-14T09:32:13;14.90;99.90
12817;DHT22;6473;51.552;6.716;2022-09-14T09:34:58;14.90;99.90
12817;DHT22;6473;51.552;6.716;2022-09-14T09:37:49;15.10;99.90
12817;DHT22;6473;51.552;6.716;2022-09-14T09:40:19;15.10;99.90
12817;DHT22;6473;51.552;6.716;2022-09-14T09:43:07;15.20;99.90
12817;DHT22;6473;51.552;6.716;2022-09-14T09:45:50;15.20;99.90
12817;DHT22;6473;51.552;6.716;2022-09-14T09:48:22;15.20;99.90
12817;DHT22;6473;51.552;6.716;2022-09-14T09:50:56;15.30;99.90
12817;DHT22;6473;51.552;6.716;2022-09-14T09:53:25;15.30;99.90
12817;DHT22;6473;51.552;6.716;2022-09-14T09:55:55;15.30;99.90
12817;DHT22;6473;51.552;6.716;2022-09-14T09:58:31;15.30;99.90
12817;DHT22;6473;51.552;6.716;2022-09-14T10:01:01;15.30;99.90
12817;DHT22;6473;51.552;6.716;2022-09-14T10:03:38;15.60;99.90
12817;DHT22;6473;51.552;6.716;2022-09-14T10:06:20;15.70;99.90
12817;DHT22;6473;51.552;6.716;2022-09-14T10:08:51;15.70;99.90
12817;DHT22;6473;51.552;6.716;2022-09-14T10:11:31;15.60;99.90
12817;DHT22;6473;51.552;6.716;2022-09-14T10:14:02;15.50;99.90
12817;DHT22;6473;51.552;6.716;2022-09-14T10:16:33;15.70;99.90
12817;DHT22;6473;51.552;6.716;2022-09-14T10:19:16;15.80;99.90
12817;DHT22;6473;51.552;6.716;2022-09-14T10:22:04;15.80;99.90
12817;DHT22;6473;51.552;6.716;2022-09-14T10:24:51;15.90;99.90
12817;DHT22;6473;51.552;6.716;2022-09-14T10:27:37;15.80;99.90
12817;DHT22;6473;51.552;6.716;2022-09-14T10:30:44;15.80;99.90
12817;DHT22;6473;51.552;6.716;2022-09-14T10:33:11;15.60;99.90
12817;DHT22;6473;51.552;6.716;2022-09-14T10:35:47;15.20;99.90
12817;DHT22;6473;51.552;6.716;2022-09-14T10:38:28;15.40;99.90
12817;DHT22;6473;51.552;6.716;2022-09-14T10:41:05;15.60;99.90
12817;DHT22;6473;51.552;6.716;2022-09-14T10:43:48;15.70;99.90
12817;DHT22;6473;51.552;6.716;2022-09-14T10:46:29;15.40;99.90
12817;DHT22;6473;51.552;6.716;2022-09-14T10:49:22;15.30;99.90
12817;DHT22;6473;51.552;6.716;2022-09-14T10:52:07;15.20;99.90
12817;DHT22;6473;51.552;6.716;2022-09-14T10:55:02;15.30;99.90
12817;DHT22;6473;51.552;6.716;2022-09-14T10:57:56;15.40;99.90
12817;DHT22;6473;51.552;6.716;2022-09-14T11:00:30;15.60;99.90
12817;DHT22;6473;51.552;6.716;2022-09-14T11:03:16;15.60;99.90
12817;DHT22;6473;51.552;6.716;2022-09-14T11:05:57;15.80;99.90
12817;DHT22;6473;51.552;6.716;2022-09-14T11:08:31;15.90;99.90
12817;DHT22;6473;51.552;6.716;2022-09-14T11:11:24;15.80;99.90
12817;DHT22;6473;51.552;6.716;2022-09-14T11:14:12;15.90;99.90
12817;DHT22;6473;51.552;6.716;2022-09-14T11:17:07;15.80;99.90
12817;DHT22;6473;51.552;6.716;2022-09-14T11:19:48;15.80;99.90
12817;DHT22;6473;51.552;6.716;2022-09-14T11:22:46;15.80;99.90
12817;DHT22;6473;51.552;6.716;2022-09-14T11:25:22;15.70;99.90
12817;DHT22;6473;51.552;6.716;2022-09-14T11:28:01;15.70;99.90
12817;DHT22;6473;51.552;6.716;2022-09-14T11:30:36;15.50;99.90
12817;DHT22;6473;51.552;6.716;2022-09-14T11:33:10;15.60;99.90
12817;DHT22;6473;51.552;6.716;2022-09-14T11:35:51;15.60;99.90
12817;DHT22;6473;51.552;6.716;2022-09-14T11:38:23;15.70;99.90
12817;DHT22;6473;51.552;6.716;2022-09-14T11:41:00;15.70;99.90
12817;DHT22;6473;51.552;6.716;2022-09-14T11:43:44;15.60;99.90
12817;DHT22;6473;51.552;6.716;2022-09-14T11:46:16;15.40;99.90
12817;DHT22;6473;51.552;6.716;2022-09-14T11:49:08;15.40;99.90
12817;DHT22;6473;51.552;6.716;2022-09-14T11:51:40;15.70;99.90
12817;DHT22;6473;51.552;6.716;2022-09-14T11:54:11;15.70;99.90
12817;DHT22;6473;51.552;6.716;2022-09-14T11:57:01;15.70;99.90
12817;DHT22;6473;51.552;6.716;2022-09-14T11:59:44;15.50;99.90
12817;DHT22;6473;51.552;6.716;2022-09-14T12:03:00;15.40;99.90
12817;DHT22;6473;51.552;6.716;2022-09-14T12:05:37;15.40;99.90
12817;DHT22;6473;51.552;6.716;2022-09-14T12:08:36;15.50;99.90
12817;DHT22;6473;51.552;6.716;2022-09-14T12:11:23;15.60;99.90
12817;DHT22;6473;51.552;6.716;2022-09-14T12:14:25;15.50;99.90
12817;DHT22;6473;51.552;6.716;2022-09-14T12:17:05;15.80;99.90
12817;DHT22;6473;51.552;6.716;2022-09-14T12:19:38;15.90;99.90
12817;DHT22;6473;51.552;6.716;2022-09-14T12:22:26;15.90;99.90
12817;DHT22;6473;51.552;6.716;2022-09-14T12:24:59;15.80;99.90
12817;DHT22;6473;51.552;6.716;2022-09-14T12:27:37;15.80;99.90
12817;DHT22;6473;51.552;6.716;2022-09-14T12:33:41;16.00;99.90
12817;DHT22;6473;51.552;6.716;2022-09-14T12:39:26;15.90;99.90
12817;DHT22;6473;51.552;6.716;2022-09-14T12:42:02;15.90;99.90
12817;DHT22;6473;51.552;6.716;2022-09-14T12:44:47;15.80;99.90
12817;DHT22;6473;51.552;6.716;2022-09-14T12:50:34;15.90;99.90
12817;DHT22;6473;51.552;6.716;2022-09-14T12:53:24;16.00;99.90
12817;DHT22;6473;51.552;6.716;2022-09-14T12:56:03;16.00;99.90
12817;DHT22;6473;51.552;6.716;2022-09-14T12:58:52;16.00;99.90
12817;DHT22;6473;51.552;6.716;2022-09-14T13:01:34;16.00;99.90
12817;DHT22;6473;51.552;6.716;2022-09-14T13:04:03;15.80;99.90
12817;DHT22;6473;51.552;6.716;2022-09-14T13:07:01;15.90;99.90
12817;DHT22;6473;51.552;6.716;2022-09-14T13:09:31;15.80;99.90
12817;DHT22;6473;51.552;6.716;2022-09-14T13:12:02;15.90;99.90
12817;DHT22;6473;51.552;6.716;2022-09-14T13:17:16;15.90;99.90
12817;DHT22;6473;51.552;6.716;2022-09-14T13:19:53;15.90;99.90
12817;DHT22;6473;51.552;6.716;2022-09-14T13:22:24;15.10;99.90
12817;DHT22;6473;51.552;6.716;2022-09-14T13:24:56;15.00;99.90
12817;DHT22;6473;51.552;6.716;2022-09-14T13:27:30;14.90;99.90
12817;DHT22;6473;51.552;6.716;2022-09-14T13:30:17;14.80;99.90
12817;DHT22;6473;51.552;6.716;2022-09-14T13:32:46;14.70;99.90
12817;DHT22;6473;51.552;6.716;2022-09-14T13:35:16;14.80;99.90
12817;DHT22;6473;51.552;6.716;2022-09-14T13:37:46;14.80;99.90
12817;DHT22;6473;51.552;6.716;2022-09-14T13:40:13;14.80;99.90
12817;DHT22;6473;51.552;6.716;2022-09-14T13:42:41;15.00;99.90
12817;DHT22;6473;51.552;6.716;2022-09-14T13:45:11;15.10;99.90
12817;DHT22;6473;51.552;6.716;2022-09-14T13:47:38;15.30;99.90
12817;DHT22;6473;51.552;6.716;2022-09-14T13:50:07;15.40;99.90
12817;DHT22;6473;51.552;6.716;2022-09-14T13:52:36;15.60;99.90
12817;DHT22;6473;51.552;6.716;2022-09-14T13:55:16;15.60;99.90
12817;DHT22;6473;51.552;6.716;2022-09-14T13:58:03;15.80;99.90
12817;DHT22;6473;51.552;6.716;2022-09-14T14:00:31;15.90;99.90
12817;DHT22;6473;51.552;6.716;2022-09-14T14:03:01;15.90;99.90
12817;DHT22;6473;51.552;6.716;2022-09-14T14:05:31;16.00;99.90
12817;DHT22;6473;51.552;6.716;2022-09-14T14:08:00;16.10;99.90
12817;DHT22;6473;51.552;6.716;2022-09-14T14:10:33;16.10;99.90
12817;DHT22;6473;51.552;6.716;2022-09-14T14:13:26;16.10;99.90
12817;DHT22;6473;51.552;6.716;2022-09-14T14:18:40;16.10;99.90
12817;DHT22;6473;51.552;6.716;2022-09-14T14:21:16;16.10;99.90
12817;DHT22;6473;51.552;6.716;2022-09-14T14:23:50;16.20;99.90
12817;DHT22;6473;51.552;6.716;2022-09-14T14:26:26;16.10;99.90
12817;DHT22;6473;51.552;6.716;2022-09-14T14:29:06;16.10;99.90
12817;DHT22;6473;51.552;6.716;2022-09-14T14:31:34;16.30;99.90
12817;DHT22;6473;51.552;6.716;2022-09-14T14:34:10;16.30;99.90
12817;DHT22;6473;51.552;6.716;2022-09-14T14:36:42;16.30;99.90
12817;DHT22;6473;51.552;6.716;2022-09-14T14:39:09;16.20;99.90
12817;DHT22;6473;51.552;6.716;2022-09-14T14:41:38;16.30;99.90
12817;DHT22;6473;51.552;6.716;2022-09-14T14:44:07;16.10;99.90
12817;DHT22;6473;51.552;6.716;2022-09-14T14:46:35;16.10;99.90
12817;DHT22;6473;51.552;6.716;2022-09-14T14:49:02;16.10;99.90
12817;DHT22;6473;51.552;6.716;2022-09-14T14:51:36;16.10;99.90
12817;DHT22;6473;51.552;6.716;2022-09-14T14:54:07;16.00;99.90
12817;DHT22;6473;51.552;6.716;2022-09-14T14:56:39;15.80;99.90
12817;DHT22;6473;51.552;6.716;2022-09-14T14:59:15;15.70;99.90
12817;DHT22;6473;51.552;6.716;2022-09-14T15:01:51;15.60;99.90
12817;DHT22;6473;51.552;6.716;2022-09-14T15:04:19;15.70;99.90
12817;DHT22;6473;51.552;6.716;2022-09-14T15:06:49;15.70;99.90
12817;DHT22;6473;51.552;6.716;2022-09-14T15:09:17;15.80;99.90
12817;DHT22;6473;51.552;6.716;2022-09-14T15:11:46;15.80;99.90
12817;DHT22;6473;51.552;6.716;2022-09-14T15:14:14;15.90;99.90
12817;DHT22;6473;51.552;6.716;2022-09-14T15:16:43;15.80;99.90
12817;DHT22;6473;51.552;6.716;2022-09-14T15:19:10;15.90;99.90
12817;DHT22;6473;51.552;6.716;2022-09-14T15:21:39;15.90;99.90
12817;DHT22;6473;51.552;6.716;2022-09-14T15:24:30;15.90;99.90
12817;DHT22;6473;51.552;6.716;2022-09-14T15:27:11;15.90;99.90
12817;DHT22;6473;51.552;6.716;2022-09-14T15:29:38;15.90;99.90
12817;DHT22;6473;51.552;6.716;2022-09-14T15:32:05;15.70;99.90
12817;DHT22;6473;51.552;6.716;2022-09-14T15:34:32;15.70;99.90
12817;DHT22;6473;51.552;6.716;2022-09-14T15:37:02;15.70;99.90
12817;DHT22;6473;51.552;6.716;2022-09-14T15:39:32;15.80;99.90
12817;DHT22;6473;51.552;6.716;2022-09-14T15:42:02;15.90;99.90
12817;DHT22;6473;51.552;6.716;2022-09-14T15:44:31;16.00;99.90
12817;DHT22;6473;51.552;6.716;2022-09-14T15:46:58;16.00;99.90
12817;DHT22;6473;51.552;6.716;2022-09-14T15:49:26;16.00;99.90
12817;DHT22;6473;51.552;6.716;2022-09-14T15:51:55;16.00;99.90
12817;DHT22;6473;51.552;6.716;2022-09-14T15:54:24;15.90;99.90
12817;DHT22;6473;51.552;6.716;2022-09-14T15:56:54;15.90;99.90
12817;DHT22;6473;51.552;6.716;2022-09-14T15:59:24;15.90;99.90
12817;DHT22;6473;51.552;6.716;2022-09-14T16:01:53;15.90;99.90
12817;DHT22;6473;51.552;6.716;2022-09-14T16:04:21;15.80;99.90
12817;DHT22;6473;51.552;6.716;2022-09-14T16:06:48;15.80;99.90
12817;DHT22;6473;51.552;6.716;2022-09-14T16:09:16;15.80;99.90
12817;DHT22;6473;51.552;6.716;2022-09-14T16:11:45;15.80;99.90
12817;DHT22;6473;51.552;6.716;2022-09-14T16:14:18;15.80;99.90
12817;DHT22;6473;51.552;6.716;2022-09-14T16:16:48;15.70;99.90
12817;DHT22;6473;51.552;6.716;2022-09-14T16:19:16;15.70;99.90
12817;DHT22;6473;51.552;6.716;2022-09-14T16:21:46;15.70;99.90
12817;DHT22;6473;51.552;6.716;2022-09-14T16:24:15;15.70;99.90
12817;DHT22;6473;51.552;6.716;2022-09-14T16:26:53;15.80;99.90
12817;DHT22;6473;51.552;6.716;2022-09-14T16:29:21;15.70;99.90
12817;DHT22;6473;51.552;6.716;2022-09-14T16:31:51;15.80;99.90
12817;DHT22;6473;51.552;6.716;2022-09-14T16:34:24;15.70;99.90
12817;DHT22;6473;51.552;6.716;2022-09-14T16:36:52;15.90;99.90
12817;DHT22;6473;51.552;6.716;2022-09-14T16:39:21;15.80;99.90
12817;DHT22;6473;51.552;6.716;2022-09-14T16:41:49;15.80;99.90
12817;DHT22;6473;51.552;6.716;2022-09-14T16:44:20;15.80;99.90
12817;DHT22;6473;51.552;6.716;2022-09-14T16:46:50;15.80;99.90
12817;DHT22;6473;51.552;6.716;2022-09-14T16:49:18;15.70;99.90
12817;DHT22;6473;51.552;6.716;2022-09-14T16:51:46;15.80;99.90
12817;DHT22;6473;51.552;6.716;2022-09-14T16:54:14;15.70;99.90